sensor_id;sensor_type;location;lat;lon;timestamp;P1;durP1;ratioP1;P2;durP2;ratioP2
11305;SDS011;5708;50.660;6.778;2023-07-20T00:02:05;11.98;;;4.65;;
11305;SDS011;5708;50.660;6.778;2023-07-20T00:04:32;11.77;;;5.50;;
11305;SDS011;5708;50.660;6.778;2023-07-20T00:06:57;23.55;;;6.22;;
11305;SDS011;5708;50.660;6.778;2023-07-20T00:09:24;9.02;;;5.30;;
11305;SDS011;5708;50.660;6.778;2023-07-20T00:11:50;13.40;;;5.50;;
11305;SDS011;5708;50.660;6.778;2023-07-20T00:14:16;9.52;;;5.25;;
11305;SDS011;5708;50.660;6.778;2023-07-20T00:16:43;12.93;;;5.80;;
11305;SDS011;5708;50.660;6.778;2023-07-20T00:19:08;13.85;;;6.35;;
11305;SDS011;5708;50.660;6.778;2023-07-20T00:21:35;13.27;;;5.93;;
11305;SDS011;5708;50.660;6.778;2023-07-20T00:24:00;13.68;;;6.28;;
11305;SDS011;5708;50.660;6.778;2023-07-20T00:26:26;14.40;;;6.38;;
11305;SDS011;5708;50.660;6.778;2023-07-20T00:28:51;14.43;;;6.00;;
11305;SDS011;5708;50.660;6.778;2023-07-20T00:31:16;12.43;;;5.88;;
11305;SDS011;5708;50.660;6.778;2023-07-20T00:33:42;10.00;;;6.13;;
11305;SDS011;5708;50.660;6.778;2023-07-20T00:36:07;12.27;;;6.43;;
11305;SDS011;5708;50.660;6.778;2023-07-20T00:38:33;15.45;;;6.10;;
11305;SDS011;5708;50.660;6.778;2023-07-20T00:40:58;14.75;;;6.32;;
11305;SDS011;5708;50.660;6.778;2023-07-20T00:43:23;22.33;;;7.13;;
11305;SDS011;5708;50.660;6.778;2023-07-20T00:45:49;12.90;;;6.32;;
11305;SDS011;5708;50.660;6.778;2023-07-20T00:48:14;12.40;;;5.75;;
11305;SDS011;5708;50.660;6.778;2023-07-20T00:50:40;13.70;;;5.50;;
11305;SDS011;5708;50.660;6.778;2023-07-20T00:53:05;14.10;;;5.85;;
11305;SDS011;5708;50.660;6.778;2023-07-20T00:55:31;10.85;;;5.55;;
11305;SDS011;5708;50.660;6.778;2023-07-20T00:57:57;10.20;;;5.70;;
11305;SDS011;5708;50.660;6.778;2023-07-20T01:00:23;14.30;;;6.10;;
11305;SDS011;5708;50.660;6.778;2023-07-20T01:02:48;13.18;;;6.20;;
11305;SDS011;5708;50.660;6.778;2023-07-20T01:05:14;12.15;;;6.10;;
11305;SDS011;5708;50.660;6.778;2023-07-20T01:07:43;13.13;;;5.85;;
11305;SDS011;5708;50.660;6.778;2023-07-20T01:10:19;11.63;;;5.90;;
11305;SDS011;5708;50.660;6.778;2023-07-20T01:12:52;9.85;;;5.25;;
11305;SDS011;5708;50.660;6.778;2023-07-20T01:15:18;12.05;;;5.80;;
11305;SDS011;5708;50.660;6.778;2023-07-20T01:17:44;10.70;;;5.80;;
11305;SDS011;5708;50.660;6.778;2023-07-20T01:20:10;10.27;;;5.68;;
11305;SDS011;5708;50.660;6.778;2023-07-20T01:32:54;7.93;;;5.00;;
11305;SDS011;5708;50.660;6.778;2023-07-20T01:35:21;15.10;;;5.70;;
11305;SDS011;5708;50.660;6.778;2023-07-20T01:37:49;10.13;;;5.43;;
11305;SDS011;5708;50.660;6.778;2023-07-20T01:40:14;8.50;;;5.07;;
11305;SDS011;5708;50.660;6.778;2023-07-20T01:42:43;10.48;;;5.32;;
11305;SDS011;5708;50.660;6.778;2023-07-20T01:45:11;9.85;;;5.57;;
11305;SDS011;5708;50.660;6.778;2023-07-20T01:47:36;14.70;;;6.30;;
11305;SDS011;5708;50.660;6.778;2023-07-20T01:50:01;10.90;;;5.32;;
11305;SDS011;5708;50.660;6.778;2023-07-20T01:52:27;11.88;;;5.80;;
11305;SDS011;5708;50.660;6.778;2023-07-20T01:54:52;12.18;;;5.88;;
11305;SDS011;5708;50.660;6.778;2023-07-20T01:57:17;11.45;;;6.53;;
11305;SDS011;5708;50.660;6.778;2023-07-20T01:59:43;12.38;;;5.72;;
11305;SDS011;5708;50.660;6.778;2023-07-20T02:02:08;12.35;;;6.00;;
11305;SDS011;5708;50.660;6.778;2023-07-20T02:04:34;13.20;;;6.30;;
11305;SDS011;5708;50.660;6.778;2023-07-20T02:06:59;11.77;;;5.90;;
11305;SDS011;5708;50.660;6.778;2023-07-20T02:09:25;13.63;;;5.85;;
11305;SDS011;5708;50.660;6.778;2023-07-20T02:11:50;11.90;;;6.22;;
11305;SDS011;5708;50.660;6.778;2023-07-20T02:14:16;10.52;;;5.38;;
11305;SDS011;5708;50.660;6.778;2023-07-20T02:16:41;15.32;;;5.78;;
11305;SDS011;5708;50.660;6.778;2023-07-20T02:19:07;11.98;;;5.25;;
11305;SDS011;5708;50.660;6.778;2023-07-20T02:21:32;10.63;;;4.70;;
11305;SDS011;5708;50.660;6.778;2023-07-20T02:23:58;9.38;;;5.50;;
11305;SDS011;5708;50.660;6.778;2023-07-20T02:26:23;7.70;;;4.85;;
11305;SDS011;5708;50.660;6.778;2023-07-20T02:28:49;8.18;;;4.88;;
11305;SDS011;5708;50.660;6.778;2023-07-20T02:31:14;12.90;;;5.63;;
11305;SDS011;5708;50.660;6.778;2023-07-20T02:33:39;11.95;;;5.07;;
11305;SDS011;5708;50.660;6.778;2023-07-20T02:36:05;11.27;;;5.75;;
11305;SDS011;5708;50.660;6.778;2023-07-20T02:38:30;11.02;;;5.10;;
11305;SDS011;5708;50.660;6.778;2023-07-20T02:40:56;12.88;;;5.18;;
11305;SDS011;5708;50.660;6.778;2023-07-20T02:43:21;10.18;;;4.35;;
11305;SDS011;5708;50.660;6.778;2023-07-20T02:45:46;11.77;;;4.95;;
11305;SDS011;5708;50.660;6.778;2023-07-20T02:48:12;13.75;;;5.25;;
11305;SDS011;5708;50.660;6.778;2023-07-20T02:50:37;8.88;;;4.47;;
11305;SDS011;5708;50.660;6.778;2023-07-20T02:53:02;10.18;;;4.65;;
11305;SDS011;5708;50.660;6.778;2023-07-20T02:55:28;7.15;;;4.10;;
11305;SDS011;5708;50.660;6.778;2023-07-20T02:57:53;8.05;;;4.47;;
11305;SDS011;5708;50.660;6.778;2023-07-20T03:00:19;8.85;;;4.63;;
11305;SDS011;5708;50.660;6.778;2023-07-20T03:02:44;11.02;;;4.95;;
11305;SDS011;5708;50.660;6.778;2023-07-20T03:05:13;10.27;;;4.70;;
11305;SDS011;5708;50.660;6.778;2023-07-20T03:07:38;7.80;;;4.53;;
11305;SDS011;5708;50.660;6.778;2023-07-20T03:10:04;12.88;;;4.68;;
11305;SDS011;5708;50.660;6.778;2023-07-20T03:12:32;11.57;;;5.22;;
11305;SDS011;5708;50.660;6.778;2023-07-20T03:14:59;11.30;;;4.80;;
11305;SDS011;5708;50.660;6.778;2023-07-20T03:17:24;9.75;;;4.57;;
11305;SDS011;5708;50.660;6.778;2023-07-20T03:19:49;12.98;;;5.05;;
11305;SDS011;5708;50.660;6.778;2023-07-20T03:22:15;12.55;;;4.45;;
11305;SDS011;5708;50.660;6.778;2023-07-20T03:24:40;10.07;;;4.70;;
11305;SDS011;5708;50.660;6.778;2023-07-20T03:27:06;10.82;;;4.65;;
11305;SDS011;5708;50.660;6.778;2023-07-20T03:29:32;10.00;;;4.47;;
11305;SDS011;5708;50.660;6.778;2023-07-20T03:31:58;9.55;;;4.15;;
11305;SDS011;5708;50.660;6.778;2023-07-20T03:34:24;9.63;;;4.40;;
11305;SDS011;5708;50.660;6.778;2023-07-20T03:36:50;8.80;;;4.07;;
11305;SDS011;5708;50.660;6.778;2023-07-20T03:39:15;9.68;;;3.95;;
11305;SDS011;5708;50.660;6.778;2023-07-20T03:41:40;10.95;;;4.20;;
11305;SDS011;5708;50.660;6.778;2023-07-20T03:44:06;8.68;;;3.90;;
11305;SDS011;5708;50.660;6.778;2023-07-20T03:46:31;10.65;;;4.43;;
11305;SDS011;5708;50.660;6.778;2023-07-20T03:48:59;11.13;;;3.88;;
11305;SDS011;5708;50.660;6.778;2023-07-20T03:51:24;11.70;;;3.60;;
11305;SDS011;5708;50.660;6.778;2023-07-20T03:53:50;8.73;;;4.05;;
11305;SDS011;5708;50.660;6.778;2023-07-20T03:56:15;8.50;;;3.55;;
11305;SDS011;5708;50.660;6.778;2023-07-20T03:58:40;9.23;;;4.28;;
11305;SDS011;5708;50.660;6.778;2023-07-20T04:01:06;9.57;;;4.03;;
11305;SDS011;5708;50.660;6.778;2023-07-20T04:03:32;6.68;;;3.60;;
11305;SDS011;5708;50.660;6.778;2023-07-20T04:05:57;12.30;;;4.65;;
11305;SDS011;5708;50.660;6.778;2023-07-20T04:08:25;11.13;;;4.10;;
11305;SDS011;5708;50.660;6.778;2023-07-20T04:10:51;8.73;;;3.88;;
11305;SDS011;5708;50.660;6.778;2023-07-20T04:13:16;10.05;;;3.88;;
11305;SDS011;5708;50.660;6.778;2023-07-20T04:15:42;11.20;;;4.13;;
11305;SDS011;5708;50.660;6.778;2023-07-20T04:18:07;11.88;;;4.75;;
11305;SDS011;5708;50.660;6.778;2023-07-20T04:20:33;11.95;;;4.00;;
11305;SDS011;5708;50.660;6.778;2023-07-20T04:22:58;9.30;;;4.50;;
11305;SDS011;5708;50.660;6.778;2023-07-20T04:25:24;12.02;;;4.78;;
11305;SDS011;5708;50.660;6.778;2023-07-20T04:27:52;11.05;;;4.43;;
11305;SDS011;5708;50.660;6.778;2023-07-20T04:30:18;10.57;;;4.90;;
11305;SDS011;5708;50.660;6.778;2023-07-20T04:32:47;12.23;;;5.38;;
11305;SDS011;5708;50.660;6.778;2023-07-20T04:35:55;14.60;;;6.07;;
11305;SDS011;5708;50.660;6.778;2023-07-20T04:38:12;14.55;;;7.15;;
11305;SDS011;5708;50.660;6.778;2023-07-20T04:40:37;13.07;;;6.22;;
11305;SDS011;5708;50.660;6.778;2023-07-20T04:43:03;12.27;;;6.57;;
11305;SDS011;5708;50.660;6.778;2023-07-20T04:45:28;13.50;;;7.25;;
11305;SDS011;5708;50.660;6.778;2023-07-20T04:47:54;15.25;;;6.70;;
11305;SDS011;5708;50.660;6.778;2023-07-20T04:50:20;14.98;;;7.05;;
11305;SDS011;5708;50.660;6.778;2023-07-20T04:52:45;13.48;;;7.25;;
11305;SDS011;5708;50.660;6.778;2023-07-20T04:55:11;16.10;;;7.88;;
11305;SDS011;5708;50.660;6.778;2023-07-20T04:57:36;18.55;;;8.35;;
11305;SDS011;5708;50.660;6.778;2023-07-20T05:00:02;19.73;;;8.52;;
11305;SDS011;5708;50.660;6.778;2023-07-20T05:02:28;17.17;;;9.40;;
11305;SDS011;5708;50.660;6.778;2023-07-20T05:04:54;18.70;;;10.10;;
11305;SDS011;5708;50.660;6.778;2023-07-20T05:07:19;19.38;;;10.90;;
11305;SDS011;5708;50.660;6.778;2023-07-20T05:09:44;26.65;;;11.73;;
11305;SDS011;5708;50.660;6.778;2023-07-20T05:12:10;24.20;;;10.63;;
11305;SDS011;5708;50.660;6.778;2023-07-20T05:14:37;21.25;;;10.57;;
11305;SDS011;5708;50.660;6.778;2023-07-20T05:17:02;20.85;;;10.90;;
11305;SDS011;5708;50.660;6.778;2023-07-20T05:19:28;19.77;;;10.15;;
11305;SDS011;5708;50.660;6.778;2023-07-20T05:21:53;26.75;;;10.82;;
11305;SDS011;5708;50.660;6.778;2023-07-20T05:24:19;23.73;;;11.32;;
11305;SDS011;5708;50.660;6.778;2023-07-20T05:26:44;22.25;;;10.07;;
11305;SDS011;5708;50.660;6.778;2023-07-20T05:29:09;20.50;;;10.07;;
11305;SDS011;5708;50.660;6.778;2023-07-20T05:31:35;20.73;;;10.20;;
11305;SDS011;5708;50.660;6.778;2023-07-20T05:34:00;21.48;;;10.25;;
11305;SDS011;5708;50.660;6.778;2023-07-20T05:36:25;25.00;;;10.35;;
11305;SDS011;5708;50.660;6.778;2023-07-20T05:38:52;21.23;;;10.48;;
11305;SDS011;5708;50.660;6.778;2023-07-20T05:41:17;18.33;;;10.07;;
11305;SDS011;5708;50.660;6.778;2023-07-20T05:43:42;21.00;;;11.07;;
11305;SDS011;5708;50.660;6.778;2023-07-20T05:46:08;21.50;;;10.55;;
11305;SDS011;5708;50.660;6.778;2023-07-20T05:48:33;19.40;;;10.15;;
11305;SDS011;5708;50.660;6.778;2023-07-20T05:50:59;21.48;;;10.45;;
11305;SDS011;5708;50.660;6.778;2023-07-20T05:53:24;18.52;;;10.02;;
11305;SDS011;5708;50.660;6.778;2023-07-20T05:55:53;18.95;;;9.70;;
11305;SDS011;5708;50.660;6.778;2023-07-20T05:58:19;16.75;;;9.35;;
11305;SDS011;5708;50.660;6.778;2023-07-20T06:00:47;16.65;;;9.10;;
11305;SDS011;5708;50.660;6.778;2023-07-20T06:03:13;19.20;;;8.75;;
11305;SDS011;5708;50.660;6.778;2023-07-20T06:05:38;16.33;;;8.30;;
11305;SDS011;5708;50.660;6.778;2023-07-20T06:08:04;14.00;;;8.25;;
11305;SDS011;5708;50.660;6.778;2023-07-20T06:10:29;15.15;;;9.02;;
11305;SDS011;5708;50.660;6.778;2023-07-20T06:12:54;15.90;;;8.43;;
11305;SDS011;5708;50.660;6.778;2023-07-20T06:15:25;14.32;;;8.35;;
11305;SDS011;5708;50.660;6.778;2023-07-20T06:17:51;17.77;;;8.52;;
11305;SDS011;5708;50.660;6.778;2023-07-20T06:20:17;12.07;;;8.15;;
11305;SDS011;5708;50.660;6.778;2023-07-20T06:22:42;17.13;;;7.70;;
11305;SDS011;5708;50.660;6.778;2023-07-20T06:25:09;13.23;;;7.90;;
11305;SDS011;5708;50.660;6.778;2023-07-20T06:27:35;14.57;;;7.85;;
11305;SDS011;5708;50.660;6.778;2023-07-20T06:30:00;13.80;;;7.97;;
11305;SDS011;5708;50.660;6.778;2023-07-20T06:32:25;12.05;;;7.53;;
11305;SDS011;5708;50.660;6.778;2023-07-20T06:34:51;15.35;;;8.13;;
11305;SDS011;5708;50.660;6.778;2023-07-20T06:37:16;16.70;;;7.22;;
11305;SDS011;5708;50.660;6.778;2023-07-20T06:39:44;11.80;;;7.30;;
11305;SDS011;5708;50.660;6.778;2023-07-20T06:42:10;14.18;;;7.60;;
11305;SDS011;5708;50.660;6.778;2023-07-20T06:44:36;12.00;;;7.05;;
11305;SDS011;5708;50.660;6.778;2023-07-20T06:47:01;12.18;;;6.85;;
11305;SDS011;5708;50.660;6.778;2023-07-20T06:49:27;16.67;;;6.75;;
11305;SDS011;5708;50.660;6.778;2023-07-20T06:51:53;13.68;;;7.47;;
11305;SDS011;5708;50.660;6.778;2023-07-20T06:54:18;12.80;;;6.85;;
11305;SDS011;5708;50.660;6.778;2023-07-20T06:56:44;11.43;;;5.97;;
11305;SDS011;5708;50.660;6.778;2023-07-20T06:59:09;16.55;;;6.25;;
11305;SDS011;5708;50.660;6.778;2023-07-20T07:01:34;12.27;;;6.90;;
11305;SDS011;5708;50.660;6.778;2023-07-20T07:04:00;10.43;;;5.95;;
11305;SDS011;5708;50.660;6.778;2023-07-20T07:06:25;9.43;;;5.53;;
11305;SDS011;5708;50.660;6.778;2023-07-20T07:08:52;10.38;;;5.68;;
11305;SDS011;5708;50.660;6.778;2023-07-20T07:11:18;10.27;;;6.05;;
11305;SDS011;5708;50.660;6.778;2023-07-20T07:13:43;13.18;;;6.15;;
11305;SDS011;5708;50.660;6.778;2023-07-20T07:16:11;9.40;;;5.72;;
11305;SDS011;5708;50.660;6.778;2023-07-20T07:18:37;10.02;;;5.32;;
11305;SDS011;5708;50.660;6.778;2023-07-20T07:21:02;15.07;;;6.13;;
11305;SDS011;5708;50.660;6.778;2023-07-20T07:23:27;11.32;;;4.95;;
11305;SDS011;5708;50.660;6.778;2023-07-20T07:25:53;8.68;;;4.75;;
11305;SDS011;5708;50.660;6.778;2023-07-20T07:28:18;8.90;;;4.85;;
11305;SDS011;5708;50.660;6.778;2023-07-20T07:30:43;9.38;;;5.10;;
11305;SDS011;5708;50.660;6.778;2023-07-20T07:33:09;10.93;;;4.55;;
11305;SDS011;5708;50.660;6.778;2023-07-20T07:35:35;9.07;;;4.70;;
11305;SDS011;5708;50.660;6.778;2023-07-20T07:38:01;8.68;;;4.50;;
11305;SDS011;5708;50.660;6.778;2023-07-20T07:40:26;7.57;;;4.03;;
11305;SDS011;5708;50.660;6.778;2023-07-20T07:42:51;9.48;;;4.35;;
11305;SDS011;5708;50.660;6.778;2023-07-20T07:45:17;9.43;;;4.60;;
11305;SDS011;5708;50.660;6.778;2023-07-20T07:47:42;8.07;;;4.25;;
11305;SDS011;5708;50.660;6.778;2023-07-20T07:50:08;10.82;;;4.32;;
11305;SDS011;5708;50.660;6.778;2023-07-20T07:52:35;8.27;;;4.30;;
11305;SDS011;5708;50.660;6.778;2023-07-20T07:55:00;6.28;;;3.95;;
11305;SDS011;5708;50.660;6.778;2023-07-20T07:57:25;8.65;;;3.97;;
11305;SDS011;5708;50.660;6.778;2023-07-20T07:59:51;8.13;;;3.70;;
11305;SDS011;5708;50.660;6.778;2023-07-20T08:02:17;11.40;;;3.80;;
11305;SDS011;5708;50.660;6.778;2023-07-20T08:04:42;5.07;;;3.00;;
11305;SDS011;5708;50.660;6.778;2023-07-20T08:07:07;6.80;;;3.17;;
11305;SDS011;5708;50.660;6.778;2023-07-20T08:09:33;7.45;;;3.17;;
11305;SDS011;5708;50.660;6.778;2023-07-20T08:11:58;6.72;;;3.35;;
11305;SDS011;5708;50.660;6.778;2023-07-20T08:14:24;9.23;;;2.58;;
11305;SDS011;5708;50.660;6.778;2023-07-20T08:16:50;6.07;;;2.47;;
11305;SDS011;5708;50.660;6.778;2023-07-20T08:19:15;7.80;;;2.60;;
11305;SDS011;5708;50.660;6.778;2023-07-20T08:21:40;4.13;;;2.70;;
11305;SDS011;5708;50.660;6.778;2023-07-20T08:24:06;6.65;;;2.95;;
11305;SDS011;5708;50.660;6.778;2023-07-20T08:26:32;4.97;;;2.40;;
11305;SDS011;5708;50.660;6.778;2023-07-20T08:28:57;4.72;;;2.00;;
11305;SDS011;5708;50.660;6.778;2023-07-20T08:31:22;4.72;;;2.15;;
11305;SDS011;5708;50.660;6.778;2023-07-20T08:33:48;5.60;;;2.53;;
11305;SDS011;5708;50.660;6.778;2023-07-20T08:36:13;6.72;;;2.63;;
11305;SDS011;5708;50.660;6.778;2023-07-20T08:38:39;6.65;;;2.70;;
11305;SDS011;5708;50.660;6.778;2023-07-20T08:41:04;7.85;;;2.28;;
11305;SDS011;5708;50.660;6.778;2023-07-20T08:43:30;5.18;;;2.47;;
11305;SDS011;5708;50.660;6.778;2023-07-20T08:45:55;6.30;;;2.25;;
11305;SDS011;5708;50.660;6.778;2023-07-20T08:48:21;6.53;;;2.60;;
11305;SDS011;5708;50.660;6.778;2023-07-20T08:50:47;5.63;;;2.67;;
11305;SDS011;5708;50.660;6.778;2023-07-20T08:53:14;6.15;;;2.40;;
11305;SDS011;5708;50.660;6.778;2023-07-20T08:55:40;3.80;;;2.08;;
11305;SDS011;5708;50.660;6.778;2023-07-20T08:58:06;4.15;;;2.15;;
11305;SDS011;5708;50.660;6.778;2023-07-20T09:00:33;4.78;;;2.30;;
11305;SDS011;5708;50.660;6.778;2023-07-20T09:03:00;4.78;;;2.05;;
11305;SDS011;5708;50.660;6.778;2023-07-20T09:05:27;4.13;;;2.55;;
11305;SDS011;5708;50.660;6.778;2023-07-20T09:07:53;3.90;;;2.08;;
11305;SDS011;5708;50.660;6.778;2023-07-20T09:10:24;3.63;;;1.90;;
11305;SDS011;5708;50.660;6.778;2023-07-20T09:12:49;7.35;;;2.00;;
11305;SDS011;5708;50.660;6.778;2023-07-20T09:15:15;6.38;;;2.10;;
11305;SDS011;5708;50.660;6.778;2023-07-20T09:17:48;5.60;;;2.10;;
11305;SDS011;5708;50.660;6.778;2023-07-20T09:20:15;5.05;;;2.28;;
11305;SDS011;5708;50.660;6.778;2023-07-20T09:22:41;3.10;;;1.65;;
11305;SDS011;5708;50.660;6.778;2023-07-20T09:25:14;4.65;;;1.67;;
11305;SDS011;5708;50.660;6.778;2023-07-20T09:27:47;4.78;;;1.98;;
11305;SDS011;5708;50.660;6.778;2023-07-20T09:30:13;3.63;;;1.75;;
11305;SDS011;5708;50.660;6.778;2023-07-20T09:35:06;4.32;;;1.88;;
11305;SDS011;5708;50.660;6.778;2023-07-20T09:37:33;5.07;;;2.10;;
11305;SDS011;5708;50.660;6.778;2023-07-20T09:39:58;4.53;;;2.00;;
11305;SDS011;5708;50.660;6.778;2023-07-20T09:42:24;5.88;;;2.28;;
11305;SDS011;5708;50.660;6.778;2023-07-20T09:44:51;4.88;;;1.98;;
11305;SDS011;5708;50.660;6.778;2023-07-20T09:47:24;4.45;;;2.15;;
11305;SDS011;5708;50.660;6.778;2023-07-20T09:49:49;6.47;;;2.00;;
11305;SDS011;5708;50.660;6.778;2023-07-20T09:52:15;5.30;;;2.10;;
11305;SDS011;5708;50.660;6.778;2023-07-20T09:54:41;3.45;;;2.05;;
11305;SDS011;5708;50.660;6.778;2023-07-20T09:57:10;4.43;;;1.90;;
11305;SDS011;5708;50.660;6.778;2023-07-20T09:59:37;5.68;;;2.22;;
11305;SDS011;5708;50.660;6.778;2023-07-20T10:02:04;3.78;;;1.80;;
11305;SDS011;5708;50.660;6.778;2023-07-20T10:04:43;4.35;;;1.88;;
11305;SDS011;5708;50.660;6.778;2023-07-20T10:07:10;4.63;;;1.92;;
11305;SDS011;5708;50.660;6.778;2023-07-20T10:09:37;4.93;;;1.58;;
11305;SDS011;5708;50.660;6.778;2023-07-20T10:12:04;4.18;;;1.60;;
11305;SDS011;5708;50.660;6.778;2023-07-20T10:14:30;2.80;;;1.30;;
11305;SDS011;5708;50.660;6.778;2023-07-20T10:16:58;3.95;;;1.48;;
11305;SDS011;5708;50.660;6.778;2023-07-20T10:19:32;4.95;;;1.60;;
11305;SDS011;5708;50.660;6.778;2023-07-20T10:22:10;3.30;;;1.30;;
11305;SDS011;5708;50.660;6.778;2023-07-20T10:24:38;3.38;;;1.50;;
11305;SDS011;5708;50.660;6.778;2023-07-20T10:27:04;3.63;;;1.95;;
11305;SDS011;5708;50.660;6.778;2023-07-20T10:29:30;3.92;;;1.75;;
11305;SDS011;5708;50.660;6.778;2023-07-20T10:31:56;4.10;;;1.83;;
11305;SDS011;5708;50.660;6.778;2023-07-20T10:34:22;3.70;;;1.40;;
11305;SDS011;5708;50.660;6.778;2023-07-20T10:36:47;3.50;;;1.73;;
11305;SDS011;5708;50.660;6.778;2023-07-20T10:39:23;3.45;;;1.40;;
11305;SDS011;5708;50.660;6.778;2023-07-20T10:42:08;2.90;;;1.63;;
11305;SDS011;5708;50.660;6.778;2023-07-20T10:44:38;3.25;;;1.50;;
11305;SDS011;5708;50.660;6.778;2023-07-20T10:47:11;5.35;;;1.50;;
11305;SDS011;5708;50.660;6.778;2023-07-20T10:52:41;4.18;;;1.50;;
11305;SDS011;5708;50.660;6.778;2023-07-20T10:55:10;4.50;;;1.45;;
11305;SDS011;5708;50.660;6.778;2023-07-20T10:57:42;2.95;;;1.48;;
11305;SDS011;5708;50.660;6.778;2023-07-20T11:00:08;3.20;;;1.40;;
11305;SDS011;5708;50.660;6.778;2023-07-20T11:02:42;2.85;;;1.30;;
11305;SDS011;5708;50.660;6.778;2023-07-20T11:05:08;2.03;;;1.23;;
11305;SDS011;5708;50.660;6.778;2023-07-20T11:08:00;2.67;;;1.10;;
11305;SDS011;5708;50.660;6.778;2023-07-20T11:10:28;2.58;;;1.33;;
11305;SDS011;5708;50.660;6.778;2023-07-20T11:16:23;2.75;;;1.23;;
11305;SDS011;5708;50.660;6.778;2023-07-20T11:18:30;1.80;;;0.90;;
11305;SDS011;5708;50.660;6.778;2023-07-20T11:20:58;4.05;;;1.48;;
11305;SDS011;5708;50.660;6.778;2023-07-20T11:23:23;2.83;;;1.33;;
11305;SDS011;5708;50.660;6.778;2023-07-20T11:25:49;2.05;;;1.10;;
11305;SDS011;5708;50.660;6.778;2023-07-20T11:28:15;3.03;;;1.10;;
11305;SDS011;5708;50.660;6.778;2023-07-20T11:30:40;2.33;;;1.00;;
11305;SDS011;5708;50.660;6.778;2023-07-20T11:33:08;1.30;;;1.02;;
11305;SDS011;5708;50.660;6.778;2023-07-20T11:35:43;5.00;;;1.40;;
11305;SDS011;5708;50.660;6.778;2023-07-20T11:38:09;3.00;;;1.25;;
11305;SDS011;5708;50.660;6.778;2023-07-20T11:40:34;4.75;;;1.38;;
11305;SDS011;5708;50.660;6.778;2023-07-20T11:43:00;2.95;;;1.48;;
11305;SDS011;5708;50.660;6.778;2023-07-20T11:45:25;3.80;;;1.30;;
11305;SDS011;5708;50.660;6.778;2023-07-20T11:47:52;2.67;;;1.42;;
11305;SDS011;5708;50.660;6.778;2023-07-20T11:50:17;3.60;;;1.40;;
11305;SDS011;5708;50.660;6.778;2023-07-20T11:52:43;5.50;;;1.42;;
11305;SDS011;5708;50.660;6.778;2023-07-20T11:55:09;4.60;;;1.73;;
11305;SDS011;5708;50.660;6.778;2023-07-20T11:57:35;7.20;;;1.50;;
11305;SDS011;5708;50.660;6.778;2023-07-20T12:00:02;3.05;;;1.50;;
11305;SDS011;5708;50.660;6.778;2023-07-20T12:02:33;2.33;;;1.33;;
11305;SDS011;5708;50.660;6.778;2023-07-20T12:04:59;3.85;;;1.20;;
11305;SDS011;5708;50.660;6.778;2023-07-20T12:07:28;2.17;;;1.30;;
11305;SDS011;5708;50.660;6.778;2023-07-20T12:10:04;3.55;;;1.30;;
11305;SDS011;5708;50.660;6.778;2023-07-20T12:12:33;3.85;;;1.50;;
11305;SDS011;5708;50.660;6.778;2023-07-20T12:15:26;3.75;;;1.80;;
11305;SDS011;5708;50.660;6.778;2023-07-20T12:17:55;6.38;;;1.40;;
11305;SDS011;5708;50.660;6.778;2023-07-20T12:20:29;4.05;;;1.52;;
11305;SDS011;5708;50.660;6.778;2023-07-20T12:23:00;2.35;;;1.27;;
11305;SDS011;5708;50.660;6.778;2023-07-20T12:25:36;3.85;;;1.20;;
11305;SDS011;5708;50.660;6.778;2023-07-20T12:28:08;2.65;;;1.30;;
11305;SDS011;5708;50.660;6.778;2023-07-20T12:30:34;2.85;;;1.20;;
11305;SDS011;5708;50.660;6.778;2023-07-20T12:32:59;3.28;;;1.10;;
11305;SDS011;5708;50.660;6.778;2023-07-20T12:35:25;1.90;;;1.20;;
11305;SDS011;5708;50.660;6.778;2023-07-20T12:37:50;2.72;;;1.27;;
11305;SDS011;5708;50.660;6.778;2023-07-20T12:40:16;2.53;;;1.38;;
11305;SDS011;5708;50.660;6.778;2023-07-20T12:42:42;2.20;;;0.90;;
11305;SDS011;5708;50.660;6.778;2023-07-20T12:45:10;1.40;;;0.80;;
11305;SDS011;5708;50.660;6.778;2023-07-20T12:47:36;1.60;;;1.10;;
11305;SDS011;5708;50.660;6.778;2023-07-20T12:50:02;3.45;;;1.02;;
11305;SDS011;5708;50.660;6.778;2023-07-20T12:52:31;2.17;;;1.13;;
11305;SDS011;5708;50.660;6.778;2023-07-20T12:54:57;4.03;;;1.00;;
11305;SDS011;5708;50.660;6.778;2023-07-20T12:57:23;2.92;;;1.20;;
11305;SDS011;5708;50.660;6.778;2023-07-20T12:59:48;2.65;;;0.90;;
11305;SDS011;5708;50.660;6.778;2023-07-20T13:02:14;1.20;;;0.90;;
11305;SDS011;5708;50.660;6.778;2023-07-20T13:04:39;3.97;;;1.13;;
11305;SDS011;5708;50.660;6.778;2023-07-20T13:07:05;2.00;;;1.02;;
11305;SDS011;5708;50.660;6.778;2023-07-20T13:09:30;3.78;;;1.00;;
11305;SDS011;5708;50.660;6.778;2023-07-20T13:11:55;1.73;;;0.80;;
11305;SDS011;5708;50.660;6.778;2023-07-20T13:14:22;2.45;;;1.08;;
11305;SDS011;5708;50.660;6.778;2023-07-20T13:16:47;2.10;;;1.10;;
11305;SDS011;5708;50.660;6.778;2023-07-20T13:19:13;1.75;;;0.93;;
11305;SDS011;5708;50.660;6.778;2023-07-20T13:21:38;2.88;;;1.27;;
11305;SDS011;5708;50.660;6.778;2023-07-20T13:24:03;3.45;;;1.58;;
11305;SDS011;5708;50.660;6.778;2023-07-20T13:26:29;3.53;;;1.20;;
11305;SDS011;5708;50.660;6.778;2023-07-20T13:28:54;2.22;;;1.10;;
11305;SDS011;5708;50.660;6.778;2023-07-20T13:31:20;2.60;;;0.90;;
11305;SDS011;5708;50.660;6.778;2023-07-20T13:33:45;4.05;;;1.00;;
11305;SDS011;5708;50.660;6.778;2023-07-20T13:36:11;2.22;;;1.15;;
11305;SDS011;5708;50.660;6.778;2023-07-20T13:38:36;1.33;;;0.90;;
11305;SDS011;5708;50.660;6.778;2023-07-20T13:41:02;3.63;;;1.10;;
11305;SDS011;5708;50.660;6.778;2023-07-20T13:43:27;3.13;;;1.10;;
11305;SDS011;5708;50.660;6.778;2023-07-20T13:45:52;2.47;;;0.90;;
11305;SDS011;5708;50.660;6.778;2023-07-20T13:48:18;2.28;;;1.10;;
11305;SDS011;5708;50.660;6.778;2023-07-20T13:50:46;3.45;;;1.10;;
11305;SDS011;5708;50.660;6.778;2023-07-20T13:53:11;2.80;;;0.90;;
11305;SDS011;5708;50.660;6.778;2023-07-20T13:55:37;3.00;;;1.25;;
11305;SDS011;5708;50.660;6.778;2023-07-20T13:58:03;4.68;;;1.10;;
11305;SDS011;5708;50.660;6.778;2023-07-20T14:00:28;2.15;;;1.00;;
11305;SDS011;5708;50.660;6.778;2023-07-20T14:02:57;2.80;;;1.35;;
11305;SDS011;5708;50.660;6.778;2023-07-20T14:05:26;3.92;;;1.25;;
11305;SDS011;5708;50.660;6.778;2023-07-20T14:07:51;2.65;;;0.98;;
11305;SDS011;5708;50.660;6.778;2023-07-20T14:10:17;1.52;;;0.95;;
11305;SDS011;5708;50.660;6.778;2023-07-20T14:12:42;2.92;;;1.40;;
11305;SDS011;5708;50.660;6.778;2023-07-20T14:15:09;3.58;;;1.70;;
11305;SDS011;5708;50.660;6.778;2023-07-20T14:17:34;3.28;;;1.50;;
11305;SDS011;5708;50.660;6.778;2023-07-20T14:20:00;5.43;;;1.48;;
11305;SDS011;5708;50.660;6.778;2023-07-20T14:22:25;5.25;;;1.60;;
11305;SDS011;5708;50.660;6.778;2023-07-20T14:24:51;5.78;;;1.58;;
11305;SDS011;5708;50.660;6.778;2023-07-20T14:27:16;4.30;;;1.13;;
11305;SDS011;5708;50.660;6.778;2023-07-20T14:29:42;1.70;;;1.20;;
11305;SDS011;5708;50.660;6.778;2023-07-20T14:32:07;5.65;;;1.20;;
11305;SDS011;5708;50.660;6.778;2023-07-20T14:34:32;5.47;;;1.25;;
11305;SDS011;5708;50.660;6.778;2023-07-20T14:36:59;3.53;;;1.50;;
11305;SDS011;5708;50.660;6.778;2023-07-20T14:39:24;2.95;;;1.23;;
11305;SDS011;5708;50.660;6.778;2023-07-20T14:41:50;4.03;;;1.30;;
11305;SDS011;5708;50.660;6.778;2023-07-20T14:44:16;2.97;;;1.50;;
11305;SDS011;5708;50.660;6.778;2023-07-20T14:46:41;4.60;;;1.25;;
11305;SDS011;5708;50.660;6.778;2023-07-20T14:49:07;3.00;;;1.40;;
11305;SDS011;5708;50.660;6.778;2023-07-20T14:51:32;2.35;;;1.20;;
11305;SDS011;5708;50.660;6.778;2023-07-20T14:53:58;5.80;;;1.40;;
11305;SDS011;5708;50.660;6.778;2023-07-20T14:56:25;3.78;;;1.52;;
11305;SDS011;5708;50.660;6.778;2023-07-20T14:58:51;5.00;;;1.40;;
11305;SDS011;5708;50.660;6.778;2023-07-20T15:01:17;6.68;;;1.50;;
11305;SDS011;5708;50.660;6.778;2023-07-20T15:03:42;2.70;;;1.50;;
11305;SDS011;5708;50.660;6.778;2023-07-20T15:06:11;3.78;;;1.45;;
11305;SDS011;5708;50.660;6.778;2023-07-20T15:08:36;3.85;;;1.40;;
11305;SDS011;5708;50.660;6.778;2023-07-20T15:11:02;1.65;;;1.00;;